9Z3 weather

Public forecast

Using degrees Fahrenheit for public forecast. Weather courtesy of forecast.io.

Closest aviation weather report (METAR) to Kodiak /Lilly Lake/ Seaplane Base

Closest report is Kodiak Airport, 4.8 nm (8.8 km) SW. Retrieved 2020/08/13 01:53 UTC (1 hour ago):

PADQ 130153Z 06006KT 10SM CLR 16/09 A2997

Closest aviation forecast (TAF) to Kodiak /Lilly Lake/ Seaplane Base

Closest forecast is Kodiak Airport, 4.8 nm (8.8 km) SW. Retrieved 2020-08-13 00:28 UTC (3 hours ago):

TAF PADQ 122325Z 1300/1324 VRB06KT P6SM VCFG SCT002 TEMPO 1300/1302 1/2SM FG OVC002